Time;durP1;ratioP1;P1;durP2;ratioP2;P2;SDS_P1;SDS_P2;PMS_P1;PMS_P2;Temp;Humidity;BMP_temperature;BMP_pressure;BME280_temperature;BME280_humidity;BME280_pressure;Samples;Min_cycle;Max_cycle;Signal;HPM_P1;HPM_P2
2022/11/20 00:15:37;;;;;;;7.82;5.15;;;;;;;14.73;64.80;101477.28;4764638;30;20052;-85
2022/11/20 00:18:46;;;;;;;8.10;5.22;;;;;;;14.72;64.28;101482.44;4740113;30;20037;-87
2022/11/20 00:25:11;;;;;;;9.05;5.10;;;;;;;14.73;64.04;101481.59;4743560;30;20048;-85
2022/11/20 00:32:48;;;;;;;7.28;5.57;;;;;;;14.72;64.28;101461.72;4726794;30;20040;-85
2022/11/20 00:48:43;;;;;;;7.38;4.65;;;;;;;14.71;63.78;101478.13;5726840;24;20042;-85
2022/11/20 01:57:18;;;;;;;5.90;4.00;;;;;;;14.64;63.26;101422.78;4767275;30;20055;-84
2022/11/20 02:11:53;;;;;;;5.32;3.70;;;;;;;14.62;63.40;101423.63;4813601;29;20139;-84
2022/11/20 05:48:43;;;;;;;4.03;2.58;;;;;;;14.52;62.30;101288.78;4851163;29;20078;-83
2022/11/20 05:51:54;;;;;;;3.53;2.60;;;;;;;14.51;62.77;101278.44;4844506;29;20031;-84
2022/11/20 06:18:27;;;;;;;2.97;2.35;;;;;;;14.46;62.73;101262.84;4797343;29;20031;-79
2022/11/20 06:21:03;;;;;;;2.97;2.55;;;;;;;14.45;62.94;101266.28;4792955;29;20047;-79
2022/11/20 06:23:31;;;;;;;3.13;2.30;;;;;;;14.44;63.00;101255.88;4777830;30;20039;-79
2022/11/20 06:25:56;;;;;;;3.53;2.38;;;;;;;14.43;63.15;101246.41;4763147;30;20051;-79
2022/11/20 06:28:21;;;;;;;3.28;2.40;;;;;;;14.42;62.11;101253.31;4764260;30;20509;-79
2022/11/20 06:30:47;;;;;;;3.25;2.38;;;;;;;14.43;62.49;101252.44;4789659;30;20047;-79
2022/11/20 06:33:12;;;;;;;4.03;2.72;;;;;;;14.44;62.53;101253.28;4815889;29;20062;-79
2022/11/20 06:35:38;;;;;;;2.90;2.50;;;;;;;14.44;62.17;101250.72;4819876;29;20042;-79
2022/11/20 06:38:03;;;;;;;3.17;2.60;;;;;;;14.44;62.79;101248.13;4768263;29;20071;-77
2022/11/20 06:40:28;;;;;;;4.10;2.45;;;;;;;14.44;62.18;101253.28;4765766;29;20620;-77
2022/11/20 06:42:54;;;;;;;3.40;2.50;;;;;;;14.44;61.89;101248.13;4780675;29;20043;-78
2022/11/20 06:45:21;;;;;;;3.53;2.60;;;;;;;14.44;61.45;101238.66;4780933;29;20082;-78
2022/11/20 06:47:46;;;;;;;3.22;2.50;;;;;;;14.44;61.09;101233.47;4810527;29;20069;-77
2022/11/20 06:50:12;;;;;;;3.08;2.45;;;;;;;14.43;61.53;101229.13;4780527;29;20130;-77
2022/11/20 06:52:37;;;;;;;3.33;2.80;;;;;;;14.45;60.97;101229.16;4779928;29;20063;-78
2022/11/20 06:55:03;;;;;;;4.80;2.35;;;;;;;14.46;61.19;101233.47;4808884;29;20100;-76
2022/11/20 06:57:28;;;;;;;2.60;2.20;;;;;;;14.48;61.55;101234.34;4764126;29;20046;-78
2022/11/20 06:59:53;;;;;;;3.50;2.40;;;;;;;14.49;61.47;101225.75;4794199;29;20569;-77
2022/11/20 07:02:19;;;;;;;3.25;2.58;;;;;;;14.54;61.40;101226.66;4794250;29;20078;-77
2022/11/20 07:04:44;;;;;;;4.38;2.55;;;;;;;14.58;61.44;101234.50;4767045;29;20098;-77
2022/11/20 07:07:15;;;;;;;3.38;2.60;;;;;;;14.59;61.18;101231.06;4766591;29;20042;-78
2022/11/20 07:10:00;;;;;;;2.90;2.22;;;;;;;14.60;61.23;101234.50;4808436;29;20026;-82
2022/11/20 07:12:28;;;;;;;3.40;2.50;;;;;;;14.63;61.37;101233.66;4811716;29;20062;-80
2022/11/20 07:14:53;;;;;;;3.15;2.20;;;;;;;14.64;61.85;101235.41;4797623;29;20041;-81
2022/11/20 07:17:19;;;;;;;3.72;2.20;;;;;;;14.63;61.47;101238.84;4786198;29;20066;-82
2022/11/20 07:19:44;;;;;;;3.63;2.20;;;;;;;14.65;61.34;101238.00;4805629;29;20103;-81
2022/11/20 07:22:09;;;;;;;3.10;2.25;;;;;;;14.66;61.62;101239.75;4798769;29;20035;-81
2022/11/20 07:24:35;;;;;;;2.67;2.03;;;;;;;14.68;61.59;101244.97;4812981;29;20131;-81
2022/11/20 07:27:00;;;;;;;2.70;2.40;;;;;;;14.68;61.98;101242.38;4798396;29;20148;-82
2022/11/20 07:29:27;;;;;;;3.63;2.55;;;;;;;14.69;61.70;101234.59;4784978;29;20199;-82
2022/11/20 07:31:59;;;;;;;2.80;2.22;;;;;;;14.71;61.90;101234.63;4817261;29;20059;-81
2022/11/20 07:34:24;;;;;;;2.42;2.10;;;;;;;14.71;61.63;101232.03;4818452;29;20043;-82
2022/11/20 07:36:50;;;;;;;3.55;2.20;;;;;;;14.72;61.92;101224.28;4817662;29;20049;-81
2022/11/20 07:39:15;;;;;;;2.78;2.30;;;;;;;14.73;62.04;101225.13;4785144;29;20078;-81
2022/11/20 07:41:41;;;;;;;3.17;2.30;;;;;;;14.74;61.65;101221.66;4801630;29;20085;-80
2022/11/20 07:44:06;;;;;;;3.58;2.33;;;;;;;14.75;62.01;101221.69;4778000;29;20046;-80
2022/11/20 07:46:32;;;;;;;3.25;2.58;;;;;;;14.77;61.58;101219.13;4777901;29;20461;-79
2022/11/20 07:48:57;;;;;;;2.65;2.08;;;;;;;14.83;61.95;101226.97;4808123;29;20058;-79
2022/11/20 07:51:22;;;;;;;3.75;2.28;;;;;;;14.85;61.65;101224.34;4795210;29;20051;-81
2022/11/20 07:53:52;;;;;;;3.47;2.63;;;;;;;14.84;61.80;101223.50;4796624;29;20086;-81
2022/11/20 07:56:24;;;;;;;10.45;4.00;;;;;;;14.83;61.52;101221.78;4812145;29;20062;-81
2022/11/20 07:59:09;;;;;;;8.00;3.72;;;;;;;14.80;63.46;101226.91;4838985;29;20080;-84
2022/11/20 08:09:08;;;;;;;8.75;3.20;;;;;;;14.66;62.61;101219.03;4811917;29;20043;-85
2022/11/20 10:03:14;;;;;;;12.68;5.75;;;;;;;14.75;64.83;101119.78;5288374;24;20060;-86
2022/11/20 19:34:17;;;;;;;5.05;4.00;;;;;;;14.86;62.93;100501.50;5731248;24;20081;-83
2022/11/20 19:41:05;;;;;;;4.93;3.72;;;;;;;14.86;62.48;100501.50;4811281;29;20071;-86
